Time;durP1;ratioP1;P1;durP2;ratioP2;P2;SDS_P1;SDS_P2;PMS_P1;PMS_P2;Temp;Humidity;BMP_temperature;BMP_pressure;BME280_temperature;BME280_humidity;BME280_pressure;Samples;Min_cycle;Max_cycle;Signal;HPM_P1;HPM_P2
2021/09/29 00:00:43;;;;;;;8.73;7.83;;;13.40;99.90;;;;;;6090190;23;20923;-78
2021/09/29 00:03:17;;;;;;;9.03;7.53;;;13.30;99.90;;;;;;6089688;23;20562;-78
2021/09/29 00:05:55;;;;;;;7.70;6.97;;;13.30;99.90;;;;;;6090170;23;20559;-78
2021/09/29 00:08:37;;;;;;;11.27;7.57;;;13.40;99.90;;;;;;6088871;22;20651;-77
2021/09/29 00:11:09;;;;;;;9.40;7.90;;;13.40;99.90;;;;;;6089937;23;20847;-77
2021/09/29 00:13:46;;;;;;;8.13;7.43;;;13.40;99.90;;;;;;6090114;23;20583;-78
2021/09/29 00:16:26;;;;;;;9.50;7.80;;;13.30;99.90;;;;;;6089430;23;20997;-78
2021/09/29 00:18:59;;;;;;;11.27;7.83;;;13.30;99.90;;;;;;6089595;23;21212;-77
2021/09/29 00:21:46;;;;;;;11.90;8.70;;;13.30;99.90;;;;;;6089857;23;20954;-78
2021/09/29 00:24:21;;;;;;;12.80;8.40;;;13.40;99.90;;;;;;6088946;23;20593;-78
2021/09/29 00:27:08;;;;;;;10.50;7.60;;;13.40;99.90;;;;;;6087748;23;21249;-78
2021/09/29 00:29:43;;;;;;;9.33;7.90;;;13.40;99.90;;;;;;6089401;23;20605;-78
2021/09/29 00:32:19;;;;;;;9.83;7.20;;;13.40;99.90;;;;;;6089855;23;20660;-77
2021/09/29 00:34:57;;;;;;;11.57;8.63;;;13.30;99.90;;;;;;6088974;23;20636;-78
2021/09/29 00:37:31;;;;;;;19.63;7.37;;;13.30;99.90;;;;;;6088734;23;20602;-77
2021/09/29 00:40:09;;;;;;;12.67;8.77;;;13.30;99.90;;;;;;6089783;23;20553;-77
2021/09/29 00:42:46;;;;;;;9.40;8.40;;;13.30;99.90;;;;;;6082913;23;20617;-77
2021/09/29 00:45:20;;;;;;;10.70;9.27;;;13.30;99.90;;;;;;6089782;23;20558;-77
2021/09/29 00:47:58;;;;;;;11.53;8.60;;;13.30;99.90;;;;;;6089232;23;20958;-77
2021/09/29 00:50:37;;;;;;;11.40;8.97;;;13.40;99.90;;;;;;6089661;23;20569;-77
2021/09/29 00:53:10;;;;;;;13.07;8.17;;;13.40;99.90;;;;;;6089555;23;20562;-77
2021/09/29 00:55:47;;;;;;;12.67;9.10;;;13.40;99.90;;;;;;6089851;23;20547;-78
2021/09/29 00:58:22;;;;;;;8.83;7.50;;;13.40;99.90;;;;;;6088557;22;20588;-78
2021/09/29 01:01:03;;;;;;;9.20;7.90;;;13.40;99.90;;;;;;6089071;23;20563;-78
2021/09/29 01:03:47;;;;;;;8.53;7.73;;;13.40;99.90;;;;;;6089162;23;20578;-78
2021/09/29 01:06:35;;;;;;;8.83;7.13;;;13.40;99.90;;;;;;6088359;23;20571;-78
2021/09/29 01:09:14;;;;;;;11.53;7.60;;;13.40;99.90;;;;;;6089138;23;20596;-78
2021/09/29 01:11:57;;;;;;;9.50;7.33;;;13.40;99.90;;;;;;6088972;23;21079;-78
2021/09/29 01:14:45;;;;;;;10.33;8.83;;;13.30;99.90;;;;;;6089227;23;20621;-78
2021/09/29 01:17:31;;;;;;;8.43;7.63;;;13.20;99.90;;;;;;6088535;23;21097;-78
2021/09/29 01:20:13;;;;;;;7.53;6.83;;;13.10;99.90;;;;;;6088880;23;20586;-78
2021/09/29 01:23:02;;;;;;;11.13;7.23;;;13.20;99.90;;;;;;6089378;23;20650;-78
2021/09/29 01:25:49;;;;;;;8.13;7.33;;;13.30;99.90;;;;;;6089628;23;20559;-78
2021/09/29 01:28:30;;;;;;;8.80;6.93;;;13.30;99.90;;;;;;6086590;23;20604;-78
2021/09/29 01:31:06;;;;;;;8.93;8.03;;;13.40;99.90;;;;;;6089182;23;20581;-78
2021/09/29 01:33:43;;;;;;;10.53;8.53;;;13.40;99.90;;;;;;6089027;22;21177;-78
2021/09/29 01:36:19;;;;;;;8.20;7.40;;;13.30;99.90;;;;;;6089302;23;21071;-78
2021/09/29 01:39:01;;;;;;;7.80;7.07;;;13.30;99.90;;;;;;6088855;23;20594;-78
2021/09/29 01:41:46;;;;;;;8.57;7.77;;;13.30;99.90;;;;;;6089226;23;20995;-78
2021/09/29 01:44:34;;;;;;;10.07;8.53;;;13.30;99.90;;;;;;6089299;23;21218;-78
2021/09/29 01:47:10;;;;;;;8.77;7.97;;;13.20;99.90;;;;;;6090089;23;20608;-78
2021/09/29 01:49:54;;;;;;;11.13;8.60;;;13.10;99.90;;;;;;6090594;23;20909;-78
2021/09/29 01:52:35;;;;;;;9.20;7.80;;;13.10;99.90;;;;;;6083268;23;20613;-78
2021/09/29 01:55:16;;;;;;;8.80;7.63;;;13.10;99.90;;;;;;6089878;23;21118;-79
2021/09/29 01:57:49;;;;;;;8.20;7.33;;;13.20;99.90;;;;;;6089566;23;20561;-78
2021/09/29 02:00:24;;;;;;;12.73;6.77;;;13.20;99.90;;;;;;6090054;23;20615;-78
2021/09/29 02:03:00;;;;;;;8.33;7.47;;;13.20;99.90;;;;;;6090316;23;20527;-78
2021/09/29 02:05:35;;;;;;;7.43;6.50;;;13.10;99.90;;;;;;6090367;23;21028;-78
2021/09/29 02:08:11;;;;;;;13.77;9.07;;;13.10;99.90;;;;;;6089651;23;20626;-78
2021/09/29 02:10:45;;;;;;;10.27;8.20;;;13.10;99.90;;;;;;6090657;23;20627;-78
2021/09/29 02:13:23;;;;;;;8.30;7.50;;;13.00;99.90;;;;;;6090816;23;20551;-78
2021/09/29 02:15:58;;;;;;;9.03;7.47;;;12.90;99.90;;;;;;6090474;23;20582;-78
2021/09/29 02:18:36;;;;;;;9.10;7.13;;;12.80;99.90;;;;;;6088949;23;21170;-78
2021/09/29 02:21:13;;;;;;;9.17;8.27;;;12.80;99.90;;;;;;6090355;23;20568;-78
2021/09/29 02:23:45;;;;;;;7.83;7.03;;;12.80;99.90;;;;;;6090450;23;20563;-78
2021/09/29 02:26:20;;;;;;;10.33;8.43;;;12.90;99.90;;;;;;6090250;23;21093;-78
2021/09/29 02:28:56;;;;;;;8.57;7.70;;;12.90;99.90;;;;;;6089707;23;20689;-78
2021/09/29 02:31:32;;;;;;;9.03;6.80;;;12.80;99.90;;;;;;6090078;23;21145;-78
2021/09/29 02:34:10;;;;;;;10.00;7.70;;;12.90;99.90;;;;;;6090107;23;20609;-78
2021/09/29 02:36:44;;;;;;;8.23;6.80;;;12.70;99.90;;;;;;6089718;23;20571;-78
2021/09/29 02:39:20;;;;;;;8.30;7.07;;;12.60;99.90;;;;;;6090039;23;20580;-78
2021/09/29 02:42:03;;;;;;;8.23;7.00;;;12.60;99.90;;;;;;6089746;23;20604;-78
2021/09/29 02:44:48;;;;;;;10.20;7.37;;;12.50;99.90;;;;;;6090209;23;20597;-78
2021/09/29 02:47:28;;;;;;;7.73;6.93;;;12.50;99.90;;;;;;6089777;23;20564;-78
2021/09/29 02:50:06;;;;;;;8.80;7.90;;;12.60;99.90;;;;;;6090384;23;20561;-78
2021/09/29 02:52:42;;;;;;;8.13;7.17;;;12.50;99.90;;;;;;6089812;23;20699;-78
2021/09/29 02:55:23;;;;;;;8.60;7.40;;;12.40;99.90;;;;;;6089809;23;21204;-78
2021/09/29 02:57:57;;;;;;;14.50;7.50;;;12.30;99.90;;;;;;6088467;23;20642;-78
2021/09/29 03:00:36;;;;;;;8.10;6.63;;;12.40;99.90;;;;;;6090508;23;20576;-78
2021/09/29 03:03:14;;;;;;;10.00;7.83;;;12.40;99.90;;;;;;6083083;23;20616;-78
2021/09/29 03:05:49;;;;;;;9.13;7.50;;;12.20;99.90;;;;;;6090477;23;20570;-78
2021/09/29 03:08:23;;;;;;;7.73;6.93;;;12.30;99.90;;;;;;6088534;23;20591;-78
2021/09/29 03:10:55;;;;;;;8.20;7.40;;;12.30;99.90;;;;;;6090146;23;20574;-78
2021/09/29 03:13:30;;;;;;;9.50;7.03;;;12.30;99.90;;;;;;6090388;23;20648;-78
2021/09/29 03:16:14;;;;;;;10.57;8.10;;;12.30;99.90;;;;;;6090469;23;20957;-78
2021/09/29 03:18:51;;;;;;;10.40;7.97;;;12.30;99.90;;;;;;6090261;23;20564;-78
2021/09/29 03:21:31;;;;;;;13.23;7.43;;;12.20;99.90;;;;;;6090595;23;21065;-78
2021/09/29 03:24:07;;;;;;;9.03;6.80;;;12.30;99.90;;;;;;6089897;23;21177;-79
2021/09/29 03:26:53;;;;;;;9.03;7.73;;;12.20;99.90;;;;;;6089088;23;20906;-78
2021/09/29 03:29:37;;;;;;;7.90;6.63;;;12.30;99.90;;;;;;6089377;23;20603;-79
2021/09/29 03:32:10;;;;;;;12.30;7.97;;;12.30;99.90;;;;;;6090419;23;20948;-78
2021/09/29 03:34:51;;;;;;;8.80;7.07;;;12.40;99.90;;;;;;6090302;23;20585;-78
2021/09/29 03:37:32;;;;;;;11.40;8.83;;;12.40;99.90;;;;;;6089824;23;20569;-78
2021/09/29 03:40:10;;;;;;;11.83;7.90;;;12.40;99.90;;;;;;6089612;23;21143;-79
2021/09/29 03:42:53;;;;;;;8.67;6.87;;;12.40;99.90;;;;;;6090416;23;20546;-79
2021/09/29 03:45:27;;;;;;;8.50;7.37;;;12.30;99.90;;;;;;6089981;23;20865;-79
2021/09/29 03:48:02;;;;;;;10.50;8.07;;;12.40;99.90;;;;;;6089338;23;20858;-78
2021/09/29 03:50:35;;;;;;;8.50;7.60;;;12.50;99.90;;;;;;6090151;23;20620;-78
2021/09/29 03:53:14;;;;;;;8.93;7.27;;;12.50;99.90;;;;;;6090064;23;20556;-78
2021/09/29 03:55:50;;;;;;;13.87;6.90;;;12.50;99.90;;;;;;6090268;23;20589;-78
2021/09/29 03:58:31;;;;;;;10.77;6.90;;;12.40;99.90;;;;;;6088467;23;20591;-78
2021/09/29 04:01:05;;;;;;;8.73;7.57;;;12.50;99.90;;;;;;6090009;23;20575;-78
2021/09/29 04:03:49;;;;;;;11.00;8.03;;;12.40;99.90;;;;;;6089996;23;20630;-78
2021/09/29 04:06:37;;;;;;;8.53;7.50;;;12.40;99.90;;;;;;6087579;23;20984;-79
2021/09/29 04:09:16;;;;;;;8.27;6.30;;;12.40;99.90;;;;;;6088941;23;20595;-79
2021/09/29 04:11:59;;;;;;;9.53;6.90;;;12.40;99.90;;;;;;6089423;23;20568;-79
2021/09/29 04:14:34;;;;;;;7.80;7.00;;;12.50;99.90;;;;;;6089769;23;20612;-79
2021/09/29 04:17:10;;;;;;;8.07;7.13;;;12.60;99.90;;;;;;6088977;23;20583;-79
2021/09/29 04:19:46;;;;;;;10.20;6.33;;;12.50;99.90;;;;;;6089895;23;20557;-79
2021/09/29 04:22:25;;;;;;;7.17;6.47;;;12.60;99.90;;;;;;6089071;23;21086;-79
2021/09/29 04:25:02;;;;;;;6.57;5.97;;;12.50;99.90;;;;;;6089761;23;20879;-79
2021/09/29 04:27:42;;;;;;;7.67;6.97;;;12.50;99.90;;;;;;6088562;23;20548;-78
2021/09/29 04:30:17;;;;;;;6.80;6.00;;;12.40;99.90;;;;;;6089295;23;20615;-79
2021/09/29 04:33:00;;;;;;;7.17;6.10;;;12.50;99.90;;;;;;6089900;23;20615;-79
2021/09/29 04:35:41;;;;;;;6.53;5.93;;;12.40;99.90;;;;;;6089326;23;20695;-79
2021/09/29 04:38:17;;;;;;;7.20;5.40;;;12.40;99.90;;;;;;6086793;22;20581;-78
2021/09/29 04:40:55;;;;;;;5.70;5.10;;;12.40;99.90;;;;;;6089308;23;20607;-78
2021/09/29 04:43:37;;;;;;;8.60;6.43;;;12.40;99.90;;;;;;6090100;23;20577;-78
2021/09/29 04:46:15;;;;;;;6.50;5.87;;;12.40;99.90;;;;;;6089686;23;20561;-79
2021/09/29 04:48:49;;;;;;;6.97;6.10;;;12.40;99.90;;;;;;6089117;23;20536;-78
2021/09/29 04:51:23;;;;;;;6.17;5.57;;;12.40;99.90;;;;;;6089622;23;20567;-78
2021/09/29 04:53:55;;;;;;;6.90;6.03;;;12.40;99.90;;;;;;6089298;23;20702;-78
2021/09/29 04:56:31;;;;;;;7.53;6.70;;;12.30;99.90;;;;;;6086980;23;20609;-79
2021/09/29 04:59:15;;;;;;;8.10;5.30;;;12.20;99.90;;;;;;6087350;23;20846;-79
2021/09/29 05:01:54;;;;;;;7.03;6.43;;;12.10;99.90;;;;;;6087404;23;20564;-79
2021/09/29 05:04:39;;;;;;;8.17;6.07;;;12.00;99.90;;;;;;6089120;23;20567;-79
2021/09/29 05:07:17;;;;;;;9.87;6.33;;;12.00;99.90;;;;;;6086866;23;20691;-79
2021/09/29 05:09:51;;;;;;;7.30;6.57;;;12.00;99.90;;;;;;6083610;23;20614;-79
2021/09/29 05:12:27;;;;;;;7.13;5.53;;;11.90;99.90;;;;;;6087678;23;21385;-79
2021/09/29 05:15:06;;;;;;;6.93;6.10;;;12.10;99.90;;;;;;6087895;23;20902;-79
2021/09/29 05:17:48;;;;;;;7.70;6.70;;;12.10;99.90;;;;;;6087226;23;20582;-79
2021/09/29 05:20:25;;;;;;;5.90;5.40;;;12.10;99.90;;;;;;6086370;22;20606;-79
2021/09/29 05:23:10;;;;;;;9.73;7.43;;;12.00;99.90;;;;;;6088258;22;21185;-80
2021/09/29 05:25:59;;;;;;;11.13;6.70;;;12.00;99.90;;;;;;6087930;23;20589;-79
2021/09/29 05:28:38;;;;;;;8.93;6.90;;;12.00;99.90;;;;;;6088465;23;20614;-79
2021/09/29 05:31:15;;;;;;;8.90;6.87;;;12.10;99.90;;;;;;6089755;23;20588;-79
2021/09/29 05:33:58;;;;;;;9.10;6.00;;;12.20;99.90;;;;;;6088034;23;20580;-80
2021/09/29 05:36:46;;;;;;;13.10;6.30;;;12.00;99.90;;;;;;6082140;23;20627;-79
2021/09/29 05:39:16;;;;;;;10.37;6.63;;;11.90;99.90;;;;;;6089447;23;20943;-79
2021/09/29 05:41:53;;;;;;;8.00;7.10;;;12.00;99.90;;;;;;6089363;23;20867;-78
2021/09/29 05:44:37;;;;;;;7.50;6.00;;;11.90;99.90;;;;;;6089623;23;20557;-79
2021/09/29 05:47:12;;;;;;;7.00;6.30;;;11.90;99.90;;;;;;6088625;23;20589;-79
2021/09/29 05:49:55;;;;;;;7.37;5.87;;;11.80;99.90;;;;;;6089846;23;20557;-79
2021/09/29 05:52:42;;;;;;;8.30;5.70;;;11.80;99.90;;;;;;6089488;23;20536;-79
2021/09/29 05:55:25;;;;;;;6.73;6.03;;;11.90;99.90;;;;;;6083249;23;20955;-79
2021/09/29 05:58:02;;;;;;;9.40;6.50;;;11.90;99.90;;;;;;6087412;22;20580;-79
2021/09/29 06:00:41;;;;;;;9.90;7.10;;;11.80;99.90;;;;;;6088124;23;21143;-78
2021/09/29 06:03:33;;;;;;;7.30;5.80;;;11.80;99.90;;;;;;6108404;23;20885;-79
2021/09/29 06:06:16;;;;;;;10.37;6.37;;;11.90;99.90;;;;;;6089221;23;20584;-79
2021/09/29 06:08:49;;;;;;;7.23;5.90;;;11.90;99.90;;;;;;6088722;23;20579;-79
2021/09/29 06:11:24;;;;;;;9.80;5.87;;;12.00;99.90;;;;;;6087469;23;21418;-79
2021/09/29 06:14:07;;;;;;;15.83;7.03;;;12.10;99.90;;;;;;6088530;22;20691;-79
2021/09/29 06:16:43;;;;;;;9.13;6.30;;;12.20;99.90;;;;;;6086424;23;20643;-80
2021/09/29 06:19:25;;;;;;;6.87;5.83;;;12.40;99.90;;;;;;6088230;23;20635;-79
2021/09/29 06:22:05;;;;;;;7.90;6.03;;;12.50;99.90;;;;;;6089177;23;20570;-79
2021/09/29 06:24:48;;;;;;;6.77;5.93;;;12.70;99.90;;;;;;6089221;22;20574;-79
2021/09/29 06:27:28;;;;;;;7.63;6.70;;;12.80;99.90;;;;;;6087710;23;21105;-79
2021/09/29 06:30:00;;;;;;;7.23;6.40;;;12.90;99.90;;;;;;6088438;23;20690;-79
2021/09/29 06:32:40;;;;;;;5.80;5.20;;;12.90;99.90;;;;;;6087284;23;20961;-78
2021/09/29 06:35:28;;;;;;;6.73;6.13;;;12.60;99.90;;;;;;6087371;23;21149;-79
2021/09/29 06:38:21;;;;;;;6.67;5.87;;;13.10;99.90;;;;;;6086159;23;20675;-78
2021/09/29 06:41:06;;;;;;;7.90;5.90;;;13.00;99.90;;;;;;6087618;23;20616;-79
2021/09/29 06:43:52;;;;;;;6.60;5.90;;;13.00;99.90;;;;;;6089049;23;20537;-80
2021/09/29 06:46:28;;;;;;;8.90;5.90;;;13.10;99.90;;;;;;6087985;23;20604;-80
2021/09/29 06:49:09;;;;;;;7.00;6.30;;;13.20;99.90;;;;;;6089131;23;21103;-79
2021/09/29 06:51:57;;;;;;;7.37;6.03;;;13.30;99.90;;;;;;6088035;23;20600;-80
2021/09/29 06:54:32;;;;;;;6.17;5.67;;;13.30;99.90;;;;;;6087410;22;20655;-80
2021/09/29 06:57:11;;;;;;;9.90;5.30;;;13.30;99.90;;;;;;6088163;23;20716;-79
2021/09/29 06:59:59;;;;;;;5.40;4.83;;;13.40;99.90;;;;;;6087223;23;20615;-80
2021/09/29 07:02:50;;;;;;;8.33;5.37;;;13.50;99.90;;;;;;6086752;23;20582;-80
2021/09/29 07:05:32;;;;;;;7.13;5.33;;;13.50;99.90;;;;;;6086872;22;20593;-80
2021/09/29 07:08:10;;;;;;;6.87;5.27;;;13.80;99.90;;;;;;6087220;23;20586;-80
2021/09/29 07:10:51;;;;;;;6.67;4.70;;;13.80;99.90;;;;;;6086965;23;20563;-79
2021/09/29 07:13:24;;;;;;;4.97;4.57;;;13.90;99.90;;;;;;6087432;23;20903;-79
2021/09/29 07:15:57;;;;;;;6.47;5.30;;;13.70;99.90;;;;;;6087184;23;20660;-78
2021/09/29 07:18:38;;;;;;;5.10;4.10;;;13.90;99.90;;;;;;6086168;23;20565;-80
2021/09/29 07:21:11;;;;;;;5.47;4.30;;;13.90;99.90;;;;;;6087307;23;20596;-79
2021/09/29 07:23:46;;;;;;;8.00;4.27;;;14.00;99.90;;;;;;6087701;23;20562;-79
2021/09/29 07:26:25;;;;;;;3.90;3.50;;;14.00;99.90;;;;;;6087490;22;20593;-79
2021/09/29 07:28:59;;;;;;;3.87;3.50;;;14.10;99.90;;;;;;6087600;23;20605;-79
2021/09/29 07:31:41;;;;;;;8.80;3.63;;;14.20;99.90;;;;;;6087489;22;20626;-80
2021/09/29 07:34:18;;;;;;;3.60;2.70;;;14.20;99.90;;;;;;6088997;23;20579;-79
2021/09/29 07:36:54;;;;;;;3.33;2.53;;;14.30;99.90;;;;;;6088555;23;20589;-80
2021/09/29 07:39:30;;;;;;;6.30;3.23;;;14.20;99.90;;;;;;6083164;23;20941;-79
2021/09/29 07:42:17;;;;;;;4.43;2.93;;;14.20;99.90;;;;;;6088568;23;20652;-79
2021/09/29 07:45:05;;;;;;;2.30;2.10;;;14.20;99.90;;;;;;6087020;23;20593;-80
2021/09/29 07:47:44;;;;;;;6.53;2.70;;;14.10;99.90;;;;;;6088339;23;20670;-79
2021/09/29 07:50:23;;;;;;;3.27;2.33;;;14.30;99.90;;;;;;6089981;23;20558;-79
2021/09/29 07:52:58;;;;;;;3.10;2.80;;;14.40;99.90;;;;;;6084101;23;21471;-79
2021/09/29 07:55:35;;;;;;;5.80;2.40;;;14.60;99.70;;;;;;6088882;23;20567;-79
2021/09/29 07:58:13;;;;;;;2.43;2.10;;;14.70;99.00;;;;;;6087643;23;20588;-79
2021/09/29 08:00:55;;;;;;;2.80;2.13;;;14.90;98.50;;;;;;6089157;23;20587;-79
2021/09/29 08:03:37;;;;;;;2.70;2.07;;;15.10;97.80;;;;;;6088353;22;20563;-79
2021/09/29 08:06:20;;;;;;;4.13;2.37;;;15.00;97.20;;;;;;6090213;23;20551;-79
2021/09/29 08:09:03;;;;;;;1.87;1.70;;;15.00;96.90;;;;;;6090331;23;20603;-79
2021/09/29 08:11:40;;;;;;;2.20;2.00;;;15.20;97.30;;;;;;6090248;23;20557;-79
2021/09/29 08:14:23;;;;;;;2.60;2.07;;;15.40;96.80;;;;;;6089779;23;21203;-79
2021/09/29 08:17:10;;;;;;;2.23;1.87;;;15.50;97.30;;;;;;6088188;23;20624;-79
2021/09/29 08:19:56;;;;;;;2.97;1.80;;;15.60;95.60;;;;;;6088672;23;21207;-80
2021/09/29 08:22:45;;;;;;;4.43;2.90;;;15.70;96.30;;;;;;6089795;23;21170;-79
2021/09/29 08:25:49;;;;;;;2.30;2.13;;;15.80;96.40;;;;;;6088403;23;20609;-79
2021/09/29 08:28:34;;;;;;;4.10;2.10;;;16.00;95.90;;;;;;6089260;23;20539;-79
2021/09/29 08:31:24;;;;;;;3.37;1.73;;;16.00;95.50;;;;;;6087795;23;20726;-79
2021/09/29 08:37:04;;;;;;;3.27;2.20;;;16.20;94.30;;;;;;6073046;22;21472;-78
2021/09/29 08:39:47;;;;;;;6.70;2.97;;;16.50;94.40;;;;;;6090100;23;20561;-78
2021/09/29 08:42:31;;;;;;;4.83;2.17;;;16.50;94.40;;;;;;6090047;23;20581;-78
2021/09/29 08:45:21;;;;;;;2.50;1.77;;;16.40;93.50;;;;;;6089977;23;20581;-78
2021/09/29 08:48:24;;;;;;;4.80;2.30;;;16.50;93.60;;;;;;6088959;23;20564;-80
2021/09/29 08:54:18;;;;;;;3.30;1.50;;;16.60;92.80;;;;;;6025383;23;20681;-80
2021/09/29 08:57:34;;;;;;;2.87;1.67;;;16.50;93.80;;;;;;6088036;23;20945;-78
2021/09/29 09:17:51;;;;;;;3.73;1.83;;;17.40;92.10;;;;;;6088697;23;20593;-80
2021/09/29 09:20:42;;;;;;;3.63;2.13;;;17.60;92.20;;;;;;6087698;23;20885;-80
2021/09/29 09:23:15;;;;;;;1.97;1.73;;;18.00;90.80;;;;;;6089063;23;20568;-77
2021/09/29 09:25:46;;;;;;;1.50;1.40;;;17.90;91.10;;;;;;6088794;23;20633;-78
2021/09/29 09:28:29;;;;;;;2.00;1.80;;;17.90;90.50;;;;;;6084448;23;21087;-81
2021/09/29 09:31:10;;;;;;;1.70;1.23;;;17.70;90.30;;;;;;6087170;23;21098;-80
2021/09/29 09:33:54;;;;;;;1.77;1.60;;;17.40;89.60;;;;;;6087968;23;20612;-80
2021/09/29 09:36:35;;;;;;;1.60;1.50;;;17.40;90.40;;;;;;6086747;23;20590;-79
2021/09/29 09:39:25;;;;;;;2.63;1.57;;;17.40;91.10;;;;;;6088996;23;20597;-80
2021/09/29 09:42:10;;;;;;;3.20;1.70;;;17.50;90.70;;;;;;6088366;23;20871;-80
2021/09/29 09:44:58;;;;;;;3.10;1.20;;;17.60;91.60;;;;;;6089150;23;20554;-80
2021/09/29 09:47:39;;;;;;;4.33;1.70;;;17.80;90.70;;;;;;6087837;23;20533;-78
2021/09/29 09:50:24;;;;;;;1.97;1.87;;;17.80;90.20;;;;;;6088536;23;20562;-80
2021/09/29 09:53:12;;;;;;;1.50;1.40;;;17.70;91.00;;;;;;6088264;23;20569;-80
2021/09/29 09:55:47;;;;;;;1.90;1.13;;;17.80;90.10;;;;;;6088008;23;20645;-80
2021/09/29 09:58:22;;;;;;;4.60;1.90;;;17.70;91.10;;;;;;6087339;23;21074;-79
2021/09/29 10:01:00;;;;;;;1.20;1.20;;;17.60;91.20;;;;;;6088239;23;20589;-79
2021/09/29 10:03:38;;;;;;;2.70;1.70;;;17.50;90.60;;;;;;6080503;23;20625;-80
2021/09/29 10:06:19;;;;;;;1.33;1.00;;;17.60;91.80;;;;;;6087371;23;20569;-80
2021/09/29 10:09:00;;;;;;;1.50;1.30;;;17.50;90.50;;;;;;6089279;23;20554;-80
2021/09/29 10:11:43;;;;;;;1.37;1.20;;;17.70;90.20;;;;;;6088972;23;20585;-80
2021/09/29 10:14:38;;;;;;;1.30;1.10;;;17.70;91.00;;;;;;6087670;23;20566;-80
2021/09/29 10:23:28;;;;;;;11.83;2.33;;;17.80;87.30;;;;;;6090493;23;20547;-79
2021/09/29 10:26:11;;;;;;;0.93;0.80;;;18.30;85.90;;;;;;6090535;23;20634;-80
2021/09/29 10:28:48;;;;;;;1.13;1.00;;;18.50;82.10;;;;;;6090638;23;20697;-80
2021/09/29 10:31:30;;;;;;;4.10;1.20;;;18.50;82.00;;;;;;6089470;23;20586;-79
2021/09/29 10:34:10;;;;;;;5.27;1.30;;;18.40;82.00;;;;;;6080829;23;20610;-80
2021/09/29 10:36:59;;;;;;;1.53;1.27;;;18.70;82.90;;;;;;6089144;23;20680;-79
2021/09/29 10:42:52;;;;;;;1.30;1.20;;;18.90;80.90;;;;;;6085560;23;20602;-80
2021/09/29 10:45:45;;;;;;;1.20;1.20;;;18.70;81.20;;;;;;6089258;23;20535;-79
2021/09/29 11:06:57;;;;;;;2.30;1.33;;;18.20;81.40;;;;;;6088615;23;20554;-80
2021/09/29 11:09:54;;;;;;;2.80;1.17;;;18.30;83.50;;;;;;6088042;23;20662;-80
2021/09/29 11:30:05;;;;;;;1.80;1.70;;;18.40;83.80;;;;;;6089831;23;20595;-80
2021/09/29 11:32:55;;;;;;;2.10;1.30;;;18.40;82.20;;;;;;6087802;23;20587;-80
2021/09/29 11:35:42;;;;;;;4.50;1.20;;;18.40;82.60;;;;;;6090021;23;20621;-80
2021/09/29 11:38:47;;;;;;;1.33;0.77;;;18.40;83.00;;;;;;6087256;23;20959;-80
2021/09/29 12:08:12;;;;;;;1.50;0.97;;;18.70;80.50;;;;;;6088973;23;20587;-80
2021/09/29 12:10:57;;;;;;;0.80;0.80;;;19.00;81.50;;;;;;6089812;23;20558;-80
2021/09/29 12:13:49;;;;;;;4.40;1.10;;;19.20;80.80;;;;;;6088089;23;20641;-80
2021/09/29 12:16:35;;;;;;;1.57;0.90;;;19.20;81.30;;;;;;6088807;23;20626;-80
2021/09/29 12:19:21;;;;;;;1.90;1.23;;;19.20;78.50;;;;;;6089286;23;20579;-80
2021/09/29 12:21:59;;;;;;;0.80;0.80;;;19.00;77.60;;;;;;6089350;23;20583;-81
2021/09/29 12:24:45;;;;;;;0.70;0.67;;;18.90;75.90;;;;;;6089255;23;20964;-80
2021/09/29 12:27:27;;;;;;;4.17;0.90;;;19.00;77.40;;;;;;6083257;23;21451;-79
2021/09/29 12:30:17;;;;;;;0.93;0.80;;;19.10;77.20;;;;;;6089510;23;20594;-80
2021/09/29 12:33:15;;;;;;;6.73;1.17;;;19.10;76.00;;;;;;6089714;23;21170;-81
2021/09/29 12:35:49;;;;;;;7.07;2.20;;;19.20;77.20;;;;;;6089203;23;20559;-79
2021/09/29 12:38:36;;;;;;;9.27;1.70;;;19.40;76.70;;;;;;6088305;23;20567;-78
2021/09/29 12:41:12;;;;;;;2.30;0.87;;;19.60;75.70;;;;;;6089699;23;20563;-81
2021/09/29 12:43:46;;;;;;;2.17;1.63;;;19.60;76.50;;;;;;6088833;23;21173;-80
2021/09/29 12:46:21;;;;;;;2.00;0.80;;;19.50;75.30;;;;;;6088763;23;20709;-79
2021/09/29 12:49:13;;;;;;;1.77;0.80;;;19.50;75.20;;;;;;6089554;23;21267;-79
2021/09/29 12:51:58;;;;;;;3.47;1.50;;;19.40;75.20;;;;;;6089411;23;20559;-80
2021/09/29 12:54:36;;;;;;;3.03;0.83;;;19.30;75.10;;;;;;6082806;23;20619;-80
2021/09/29 12:57:10;;;;;;;1.10;1.00;;;19.10;75.50;;;;;;6089114;23;20603;-80
2021/09/29 12:59:41;;;;;;;4.27;1.00;;;19.10;75.30;;;;;;6089665;23;20570;-80
2021/09/29 13:02:16;;;;;;;2.50;0.87;;;18.70;77.10;;;;;;6089367;23;20905;-80
2021/09/29 13:04:54;;;;;;;3.43;1.03;;;18.80;79.00;;;;;;6090141;23;20559;-81
2021/09/29 13:07:33;;;;;;;3.13;1.07;;;18.60;76.60;;;;;;6088930;23;20589;-80
2021/09/29 13:10:08;;;;;;;1.80;1.70;;;18.70;78.30;;;;;;6089272;23;20562;-81
2021/09/29 13:12:43;;;;;;;3.27;2.43;;;18.70;79.30;;;;;;6087737;23;20583;-81
2021/09/29 13:15:26;;;;;;;1.97;1.50;;;18.90;79.20;;;;;;6088761;23;20538;-81
2021/09/29 13:18:03;;;;;;;2.83;1.13;;;19.20;81.00;;;;;;6088625;23;21119;-80
2021/09/29 13:20:55;;;;;;;5.70;1.30;;;19.10;79.20;;;;;;6087527;23;20590;-80
2021/09/29 13:23:37;;;;;;;4.60;1.40;;;19.00;79.90;;;;;;6085098;23;20562;-80
2021/09/29 13:37:56;;;;;;;0.90;0.80;;;18.00;84.80;;;;;;6068735;22;20653;-80
2021/09/29 13:40:31;;;;;;;2.43;1.23;;;17.70;88.00;;;;;;6088023;23;20604;-81
2021/09/29 13:43:06;;;;;;;4.00;1.30;;;17.40;90.90;;;;;;6090683;23;20558;-80
2021/09/29 13:45:39;;;;;;;1.07;0.97;;;17.10;93.30;;;;;;6090114;23;20588;-81
2021/09/29 13:48:29;;;;;;;3.13;1.60;;;16.80;95.90;;;;;;6089592;23;20536;-80
2021/09/29 13:51:11;;;;;;;2.60;1.47;;;16.50;99.90;;;;;;6084458;23;20616;-81
2021/09/29 13:53:55;;;;;;;3.83;1.87;;;16.20;99.90;;;;;;6089964;22;20629;-81
2021/09/29 13:56:47;;;;;;;2.93;1.63;;;16.00;99.90;;;;;;6089503;23;20585;-81
2021/09/29 13:59:44;;;;;;;2.23;2.03;;;15.90;99.90;;;;;;6089998;22;20564;-80
2021/09/29 14:15:06;;;;;;;1.40;1.23;;;15.80;99.90;;;;;;6029328;23;20572;-79
2021/09/29 14:29:08;;;;;;;2.00;0.53;;;15.10;99.90;;;;;;6089393;23;20594;-80
2021/09/29 14:31:43;;;;;;;0.90;0.83;;;15.20;99.90;;;;;;6090387;23;20550;-79
2021/09/29 14:34:17;;;;;;;0.77;0.50;;;14.90;99.90;;;;;;6090494;23;21007;-81
2021/09/29 14:36:49;;;;;;;1.77;0.63;;;14.60;99.90;;;;;;6089900;23;20567;-80
2021/09/29 14:39:36;;;;;;;0.53;0.53;;;14.10;99.90;;;;;;6088775;23;20586;-79
2021/09/29 14:42:16;;;;;;;0.70;0.70;;;13.90;99.90;;;;;;6090734;23;20581;-80
2021/09/29 14:44:58;;;;;;;0.60;0.50;;;13.70;99.90;;;;;;6089962;23;20530;-80
2021/09/29 14:47:33;;;;;;;1.23;0.70;;;13.50;99.90;;;;;;6090058;23;20562;-81
2021/09/29 14:50:11;;;;;;;0.83;0.30;;;13.60;99.90;;;;;;6083854;23;20709;-80
2021/09/29 14:52:58;;;;;;;0.80;0.70;;;13.60;99.90;;;;;;6089756;23;20565;-80
2021/09/29 14:55:41;;;;;;;2.03;1.90;;;13.40;99.90;;;;;;6090456;22;20574;-80
2021/09/29 14:58:28;;;;;;;3.70;1.90;;;13.30;99.90;;;;;;6088012;23;20620;-81
2021/09/29 15:01:09;;;;;;;2.23;1.37;;;13.30;99.90;;;;;;6084110;23;20950;-80
2021/09/29 15:03:46;;;;;;;1.80;1.70;;;13.20;99.90;;;;;;6090178;23;20571;-80
2021/09/29 15:06:24;;;;;;;1.63;1.50;;;13.20;99.90;;;;;;6090108;23;20560;-80
2021/09/29 15:09:00;;;;;;;0.90;0.87;;;13.30;99.90;;;;;;6085080;23;21235;-80
2021/09/29 15:11:38;;;;;;;0.67;0.60;;;13.30;99.90;;;;;;6088829;23;20936;-80
2021/09/29 15:14:29;;;;;;;0.97;0.90;;;13.30;99.90;;;;;;6089808;23;20572;-80
2021/09/29 15:17:11;;;;;;;0.50;0.40;;;13.20;99.90;;;;;;6086549;23;20580;-80
2021/09/29 15:19:58;;;;;;;1.97;0.70;;;13.10;99.90;;;;;;6087554;23;20681;-80
2021/09/29 15:22:53;;;;;;;1.03;0.80;;;13.00;99.90;;;;;;6090062;23;20582;-80
2021/09/29 15:25:33;;;;;;;0.70;0.70;;;13.00;99.90;;;;;;6089870;23;20560;-80
2021/09/29 15:28:23;;;;;;;0.70;0.70;;;12.90;99.90;;;;;;6089482;23;20616;-80
2021/09/29 15:48:50;;;;;;;2.27;1.00;;;12.90;99.90;;;;;;6088404;23;20692;-80
2021/09/29 15:51:27;;;;;;;2.00;0.93;;;12.90;99.90;;;;;;6084740;23;20612;-80
2021/09/29 15:54:21;;;;;;;0.47;0.47;;;13.00;99.90;;;;;;6088666;23;20600;-80
2021/09/29 16:00:14;;;;;;;0.60;0.60;;;13.10;99.90;;;;;;6037470;23;20647;-80
2021/09/29 16:03:06;;;;;;;1.10;0.63;;;13.10;99.90;;;;;;6089682;23;21155;-80
2021/09/29 16:05:59;;;;;;;0.50;0.50;;;13.10;99.90;;;;;;6089869;23;20597;-80
2021/09/29 16:08:50;;;;;;;0.50;0.50;;;13.20;99.90;;;;;;6089216;23;20543;-80
2021/09/29 16:23:40;;;;;;;0.60;0.60;;;12.90;99.90;;;;;;6087984;23;20560;-80
2021/09/29 16:32:22;;;;;;;0.50;0.50;;;12.90;99.90;;;;;;6090075;23;20574;-79
2021/09/29 16:35:03;;;;;;;2.17;1.40;;;12.90;99.90;;;;;;6087537;23;21416;-80
2021/09/29 16:37:45;;;;;;;0.93;0.70;;;13.00;99.90;;;;;;6069116;23;20635;-80
2021/09/29 16:40:23;;;;;;;1.27;0.80;;;13.00;99.90;;;;;;6089988;23;20646;-80
2021/09/29 16:43:09;;;;;;;1.90;0.93;;;13.00;99.90;;;;;;6088518;23;20616;-80
2021/09/29 16:45:42;;;;;;;1.37;1.10;;;12.90;99.90;;;;;;6090056;23;20565;-80